sensor_id;sensor_type;location;lat;lon;timestamp;P1;durP1;ratioP1;P2;durP2;ratioP2
9409;SDS011;4744;52.576;13.568;2022-08-24T00:00:09;3.10;;;2.80;;
9409;SDS011;4744;52.576;13.568;2022-08-24T00:02:38;2.78;;;2.58;;
9409;SDS011;4744;52.576;13.568;2022-08-24T00:05:06;2.45;;;2.28;;
9409;SDS011;4744;52.576;13.568;2022-08-24T00:07:34;2.63;;;2.42;;
9409;SDS011;4744;52.576;13.568;2022-08-24T00:10:02;2.58;;;2.42;;
9409;SDS011;4744;52.576;13.568;2022-08-24T00:12:31;3.13;;;2.70;;
9409;SDS011;4744;52.576;13.568;2022-08-24T00:14:58;3.22;;;2.92;;
9409;SDS011;4744;52.576;13.568;2022-08-24T00:17:26;3.40;;;3.15;;
9409;SDS011;4744;52.576;13.568;2022-08-24T00:19:53;3.85;;;3.25;;
9409;SDS011;4744;52.576;13.568;2022-08-24T00:22:20;3.38;;;3.17;;
9409;SDS011;4744;52.576;13.568;2022-08-24T00:24:47;3.20;;;2.70;;
9409;SDS011;4744;52.576;13.568;2022-08-24T00:27:14;2.80;;;2.60;;
9409;SDS011;4744;52.576;13.568;2022-08-24T00:29:40;2.58;;;2.40;;
9409;SDS011;4744;52.576;13.568;2022-08-24T00:32:07;2.70;;;2.50;;
9409;SDS011;4744;52.576;13.568;2022-08-24T00:34:35;2.72;;;2.58;;
9409;SDS011;4744;52.576;13.568;2022-08-24T00:37:02;2.85;;;2.65;;
9409;SDS011;4744;52.576;13.568;2022-08-24T00:39:29;2.53;;;2.33;;
9409;SDS011;4744;52.576;13.568;2022-08-24T00:41:56;2.83;;;2.60;;
9409;SDS011;4744;52.576;13.568;2022-08-24T00:44:23;3.15;;;2.75;;
9409;SDS011;4744;52.576;13.568;2022-08-24T00:46:51;2.85;;;2.65;;
9409;SDS011;4744;52.576;13.568;2022-08-24T00:49:22;3.45;;;3.05;;
9409;SDS011;4744;52.576;13.568;2022-08-24T00:51:55;3.15;;;2.95;;
9409;SDS011;4744;52.576;13.568;2022-08-24T00:54:27;3.13;;;2.78;;
9409;SDS011;4744;52.576;13.568;2022-08-24T00:56:59;2.80;;;2.60;;
9409;SDS011;4744;52.576;13.568;2022-08-24T00:59:30;3.17;;;2.95;;
9409;SDS011;4744;52.576;13.568;2022-08-24T01:02:01;3.65;;;3.08;;
9409;SDS011;4744;52.576;13.568;2022-08-24T01:04:31;2.90;;;2.70;;
9409;SDS011;4744;52.576;13.568;2022-08-24T01:07:04;3.30;;;3.03;;
9409;SDS011;4744;52.576;13.568;2022-08-24T01:09:30;4.20;;;3.80;;
9409;SDS011;4744;52.576;13.568;2022-08-24T01:11:57;4.40;;;4.00;;
9409;SDS011;4744;52.576;13.568;2022-08-24T01:14:24;3.67;;;3.35;;
9409;SDS011;4744;52.576;13.568;2022-08-24T01:16:51;2.90;;;2.70;;
9409;SDS011;4744;52.576;13.568;2022-08-24T01:19:37;4.20;;;3.17;;
9409;SDS011;4744;52.576;13.568;2022-08-24T01:22:13;2.90;;;2.70;;
9409;SDS011;4744;52.576;13.568;2022-08-24T01:24:48;3.38;;;2.90;;
9409;SDS011;4744;52.576;13.568;2022-08-24T01:27:15;3.33;;;2.83;;
9409;SDS011;4744;52.576;13.568;2022-08-24T01:29:42;3.15;;;2.95;;
9409;SDS011;4744;52.576;13.568;2022-08-24T01:32:10;3.92;;;3.63;;
9409;SDS011;4744;52.576;13.568;2022-08-24T01:34:37;3.55;;;3.25;;
9409;SDS011;4744;52.576;13.568;2022-08-24T01:37:04;4.30;;;3.63;;
9409;SDS011;4744;52.576;13.568;2022-08-24T01:39:35;5.43;;;4.20;;
9409;SDS011;4744;52.576;13.568;2022-08-24T01:42:06;4.82;;;4.43;;
9409;SDS011;4744;52.576;13.568;2022-08-24T01:44:34;4.53;;;3.88;;
9409;SDS011;4744;52.576;13.568;2022-08-24T01:47:04;3.83;;;3.53;;
9409;SDS011;4744;52.576;13.568;2022-08-24T01:49:32;5.25;;;4.68;;
9409;SDS011;4744;52.576;13.568;2022-08-24T01:52:01;5.95;;;5.28;;
9409;SDS011;4744;52.576;13.568;2022-08-24T01:54:30;7.30;;;6.47;;
9409;SDS011;4744;52.576;13.568;2022-08-24T01:56:57;9.43;;;7.20;;
9409;SDS011;4744;52.576;13.568;2022-08-24T01:59:26;9.95;;;7.47;;
9409;SDS011;4744;52.576;13.568;2022-08-24T02:01:54;9.50;;;8.25;;
9409;SDS011;4744;52.576;13.568;2022-08-24T02:04:26;10.13;;;8.32;;
9409;SDS011;4744;52.576;13.568;2022-08-24T02:06:53;10.20;;;9.07;;
9409;SDS011;4744;52.576;13.568;2022-08-24T02:09:20;11.00;;;7.88;;
9409;SDS011;4744;52.576;13.568;2022-08-24T02:11:47;8.60;;;7.70;;
9409;SDS011;4744;52.576;13.568;2022-08-24T02:14:14;9.95;;;7.50;;
9409;SDS011;4744;52.576;13.568;2022-08-24T02:16:44;8.75;;;7.85;;
9409;SDS011;4744;52.576;13.568;2022-08-24T02:19:11;8.25;;;7.45;;
9409;SDS011;4744;52.576;13.568;2022-08-24T02:21:38;7.97;;;6.75;;
9409;SDS011;4744;52.576;13.568;2022-08-24T02:24:06;6.70;;;6.10;;
9409;SDS011;4744;52.576;13.568;2022-08-24T02:26:33;6.55;;;5.95;;
9409;SDS011;4744;52.576;13.568;2022-08-24T02:29:00;7.60;;;6.90;;
9409;SDS011;4744;52.576;13.568;2022-08-24T02:31:27;7.70;;;6.20;;
9409;SDS011;4744;52.576;13.568;2022-08-24T02:33:55;9.65;;;7.32;;
9409;SDS011;4744;52.576;13.568;2022-08-24T02:36:22;5.95;;;5.18;;
9409;SDS011;4744;52.576;13.568;2022-08-24T02:38:49;5.43;;;5.03;;
9409;SDS011;4744;52.576;13.568;2022-08-24T02:41:16;6.25;;;5.65;;
9409;SDS011;4744;52.576;13.568;2022-08-24T02:43:42;5.60;;;5.10;;
9409;SDS011;4744;52.576;13.568;2022-08-24T02:46:15;8.65;;;7.35;;
9409;SDS011;4744;52.576;13.568;2022-08-24T02:48:43;7.00;;;6.30;;
9409;SDS011;4744;52.576;13.568;2022-08-24T02:51:18;8.38;;;6.82;;
9409;SDS011;4744;52.576;13.568;2022-08-24T02:53:45;7.38;;;6.22;;
9409;SDS011;4744;52.576;13.568;2022-08-24T02:56:12;8.43;;;7.47;;
9409;SDS011;4744;52.576;13.568;2022-08-24T02:58:39;6.53;;;5.93;;
9409;SDS011;4744;52.576;13.568;2022-08-24T03:01:07;7.13;;;6.00;;
9409;SDS011;4744;52.576;13.568;2022-08-24T03:03:35;6.95;;;6.28;;
9409;SDS011;4744;52.576;13.568;2022-08-24T03:06:02;6.18;;;5.68;;
9409;SDS011;4744;52.576;13.568;2022-08-24T03:08:32;7.35;;;6.22;;
9409;SDS011;4744;52.576;13.568;2022-08-24T03:10:59;6.25;;;5.70;;
9409;SDS011;4744;52.576;13.568;2022-08-24T03:13:27;6.28;;;5.68;;
9409;SDS011;4744;52.576;13.568;2022-08-24T03:15:55;8.32;;;7.43;;
9409;SDS011;4744;52.576;13.568;2022-08-24T03:18:22;6.60;;;5.97;;
9409;SDS011;4744;52.576;13.568;2022-08-24T03:20:50;5.63;;;5.13;;
9409;SDS011;4744;52.576;13.568;2022-08-24T03:23:17;5.35;;;4.93;;
9409;SDS011;4744;52.576;13.568;2022-08-24T03:25:45;5.63;;;5.13;;
9409;SDS011;4744;52.576;13.568;2022-08-24T03:28:12;6.70;;;6.10;;
9409;SDS011;4744;52.576;13.568;2022-08-24T03:30:40;6.65;;;6.05;;
9409;SDS011;4744;52.576;13.568;2022-08-24T03:33:07;5.55;;;5.05;;
9409;SDS011;4744;52.576;13.568;2022-08-24T03:35:35;5.25;;;4.85;;
9409;SDS011;4744;52.576;13.568;2022-08-24T03:38:02;5.38;;;4.90;;
9409;SDS011;4744;52.576;13.568;2022-08-24T03:40:29;4.88;;;4.47;;
9409;SDS011;4744;52.576;13.568;2022-08-24T03:42:58;4.47;;;4.07;;
9409;SDS011;4744;52.576;13.568;2022-08-24T03:45:28;6.78;;;6.15;;
9409;SDS011;4744;52.576;13.568;2022-08-24T03:47:55;6.82;;;6.13;;
9409;SDS011;4744;52.576;13.568;2022-08-24T03:50:23;6.53;;;6.03;;
9409;SDS011;4744;52.576;13.568;2022-08-24T03:52:51;5.90;;;5.50;;
9409;SDS011;4744;52.576;13.568;2022-08-24T03:55:19;5.03;;;4.63;;
9409;SDS011;4744;52.576;13.568;2022-08-24T03:57:45;5.35;;;4.95;;
9409;SDS011;4744;52.576;13.568;2022-08-24T04:00:14;7.82;;;7.22;;
9409;SDS011;4744;52.576;13.568;2022-08-24T04:02:42;6.90;;;6.30;;
9409;SDS011;4744;52.576;13.568;2022-08-24T04:05:09;7.38;;;6.72;;
9409;SDS011;4744;52.576;13.568;2022-08-24T04:07:38;5.63;;;5.22;;
9409;SDS011;4744;52.576;13.568;2022-08-24T04:10:05;5.45;;;5.05;;
9409;SDS011;4744;52.576;13.568;2022-08-24T04:12:33;6.47;;;5.63;;
9409;SDS011;4744;52.576;13.568;2022-08-24T04:15:00;6.07;;;5.57;;
9409;SDS011;4744;52.576;13.568;2022-08-24T04:17:28;5.13;;;4.72;;
9409;SDS011;4744;52.576;13.568;2022-08-24T04:19:55;5.07;;;4.68;;
9409;SDS011;4744;52.576;13.568;2022-08-24T04:22:23;6.70;;;6.00;;
9409;SDS011;4744;52.576;13.568;2022-08-24T04:24:50;7.35;;;6.43;;
9409;SDS011;4744;52.576;13.568;2022-08-24T04:27:17;6.97;;;6.38;;
9409;SDS011;4744;52.576;13.568;2022-08-24T04:29:44;7.18;;;6.57;;
9409;SDS011;4744;52.576;13.568;2022-08-24T04:32:10;6.20;;;5.70;;
9409;SDS011;4744;52.576;13.568;2022-08-24T04:34:41;7.70;;;6.90;;
9409;SDS011;4744;52.576;13.568;2022-08-24T04:37:08;8.02;;;6.00;;
9409;SDS011;4744;52.576;13.568;2022-08-24T04:39:35;5.90;;;5.38;;
9409;SDS011;4744;52.576;13.568;2022-08-24T04:42:02;7.30;;;6.68;;
9409;SDS011;4744;52.576;13.568;2022-08-24T04:44:29;7.25;;;6.55;;
9409;SDS011;4744;52.576;13.568;2022-08-24T04:46:56;5.38;;;4.93;;
9409;SDS011;4744;52.576;13.568;2022-08-24T04:49:23;6.63;;;5.57;;
9409;SDS011;4744;52.576;13.568;2022-08-24T04:51:51;5.68;;;4.90;;
9409;SDS011;4744;52.576;13.568;2022-08-24T04:54:18;5.07;;;4.45;;
9409;SDS011;4744;52.576;13.568;2022-08-24T04:56:45;6.85;;;6.13;;
9409;SDS011;4744;52.576;13.568;2022-08-24T04:59:12;6.00;;;5.50;;
9409;SDS011;4744;52.576;13.568;2022-08-24T05:01:39;5.30;;;4.90;;
9409;SDS011;4744;52.576;13.568;2022-08-24T05:04:06;5.10;;;4.70;;
9409;SDS011;4744;52.576;13.568;2022-08-24T05:06:34;5.25;;;4.32;;
9409;SDS011;4744;52.576;13.568;2022-08-24T05:09:03;6.63;;;5.90;;
9409;SDS011;4744;52.576;13.568;2022-08-24T05:11:30;7.88;;;6.13;;
9409;SDS011;4744;52.576;13.568;2022-08-24T05:13:58;5.95;;;5.22;;
9409;SDS011;4744;52.576;13.568;2022-08-24T05:16:24;6.57;;;5.97;;
9409;SDS011;4744;52.576;13.568;2022-08-24T05:18:53;7.72;;;7.07;;
9409;SDS011;4744;52.576;13.568;2022-08-24T05:21:21;6.70;;;6.10;;
9409;SDS011;4744;52.576;13.568;2022-08-24T05:23:49;6.20;;;5.70;;
9409;SDS011;4744;52.576;13.568;2022-08-24T05:26:18;7.32;;;6.70;;
9409;SDS011;4744;52.576;13.568;2022-08-24T05:28:47;7.90;;;7.20;;
9409;SDS011;4744;52.576;13.568;2022-08-24T05:31:15;10.20;;;9.27;;
9409;SDS011;4744;52.576;13.568;2022-08-24T05:33:44;9.30;;;8.50;;
9409;SDS011;4744;52.576;13.568;2022-08-24T05:36:14;7.30;;;6.70;;
9409;SDS011;4744;52.576;13.568;2022-08-24T05:38:43;18.30;;;9.50;;
9409;SDS011;4744;52.576;13.568;2022-08-24T05:41:10;9.38;;;8.48;;
9409;SDS011;4744;52.576;13.568;2022-08-24T05:43:38;7.80;;;7.13;;
9409;SDS011;4744;52.576;13.568;2022-08-24T05:46:05;9.20;;;8.23;;
9409;SDS011;4744;52.576;13.568;2022-08-24T05:48:32;8.25;;;7.55;;
9409;SDS011;4744;52.576;13.568;2022-08-24T05:51:01;8.68;;;7.97;;
9409;SDS011;4744;52.576;13.568;2022-08-24T05:53:29;9.18;;;8.27;;
9409;SDS011;4744;52.576;13.568;2022-08-24T05:55:55;7.97;;;7.28;;
9409;SDS011;4744;52.576;13.568;2022-08-24T05:58:22;8.88;;;8.02;;
9409;SDS011;4744;52.576;13.568;2022-08-24T06:00:50;7.95;;;7.32;;
9409;SDS011;4744;52.576;13.568;2022-08-24T06:03:17;9.13;;;8.23;;
9409;SDS011;4744;52.576;13.568;2022-08-24T06:05:44;8.85;;;7.72;;
9409;SDS011;4744;52.576;13.568;2022-08-24T06:08:13;8.45;;;7.65;;
9409;SDS011;4744;52.576;13.568;2022-08-24T06:10:40;10.20;;;9.20;;
9409;SDS011;4744;52.576;13.568;2022-08-24T06:13:08;8.77;;;8.02;;
9409;SDS011;4744;52.576;13.568;2022-08-24T06:15:35;10.32;;;9.23;;
9409;SDS011;4744;52.576;13.568;2022-08-24T06:18:04;10.52;;;8.43;;
9409;SDS011;4744;52.576;13.568;2022-08-24T06:20:32;9.90;;;8.90;;
9409;SDS011;4744;52.576;13.568;2022-08-24T06:23:03;8.18;;;7.38;;
9409;SDS011;4744;52.576;13.568;2022-08-24T06:25:30;12.43;;;9.40;;
9409;SDS011;4744;52.576;13.568;2022-08-24T06:28:15;10.52;;;8.65;;
9409;SDS011;4744;52.576;13.568;2022-08-24T06:30:42;8.30;;;7.40;;
9409;SDS011;4744;52.576;13.568;2022-08-24T06:33:10;11.85;;;8.77;;
9409;SDS011;4744;52.576;13.568;2022-08-24T06:35:37;13.43;;;9.48;;
9409;SDS011;4744;52.576;13.568;2022-08-24T06:38:04;12.07;;;9.25;;
9409;SDS011;4744;52.576;13.568;2022-08-24T06:40:30;9.63;;;7.95;;
9409;SDS011;4744;52.576;13.568;2022-08-24T06:43:00;8.73;;;7.82;;
9409;SDS011;4744;52.576;13.568;2022-08-24T06:45:27;13.63;;;9.02;;
9409;SDS011;4744;52.576;13.568;2022-08-24T06:47:55;10.73;;;8.35;;
9409;SDS011;4744;52.576;13.568;2022-08-24T06:50:23;11.82;;;8.85;;
9409;SDS011;4744;52.576;13.568;2022-08-24T06:52:50;13.52;;;9.68;;
9409;SDS011;4744;52.576;13.568;2022-08-24T06:55:17;13.70;;;10.00;;
9409;SDS011;4744;52.576;13.568;2022-08-24T06:57:44;11.20;;;8.98;;
9409;SDS011;4744;52.576;13.568;2022-08-24T07:00:11;18.17;;;10.93;;
9409;SDS011;4744;52.576;13.568;2022-08-24T07:02:38;14.13;;;10.27;;
9409;SDS011;4744;52.576;13.568;2022-08-24T07:05:06;15.18;;;10.85;;
9409;SDS011;4744;52.576;13.568;2022-08-24T07:07:35;12.88;;;10.30;;
9409;SDS011;4744;52.576;13.568;2022-08-24T07:10:02;18.73;;;11.70;;
9409;SDS011;4744;52.576;13.568;2022-08-24T07:12:32;17.05;;;11.73;;
9409;SDS011;4744;52.576;13.568;2022-08-24T07:14:59;16.05;;;11.15;;
9409;SDS011;4744;52.576;13.568;2022-08-24T07:17:26;16.02;;;9.93;;
9409;SDS011;4744;52.576;13.568;2022-08-24T07:19:53;24.80;;;13.88;;
9409;SDS011;4744;52.576;13.568;2022-08-24T07:22:20;29.00;;;15.40;;
9409;SDS011;4744;52.576;13.568;2022-08-24T07:24:48;24.77;;;13.60;;
9409;SDS011;4744;52.576;13.568;2022-08-24T07:27:15;24.02;;;13.48;;
9409;SDS011;4744;52.576;13.568;2022-08-24T07:29:42;24.42;;;13.18;;
9409;SDS011;4744;52.576;13.568;2022-08-24T07:32:09;28.92;;;14.27;;
9409;SDS011;4744;52.576;13.568;2022-08-24T07:34:36;27.75;;;14.70;;
9409;SDS011;4744;52.576;13.568;2022-08-24T07:37:03;27.35;;;13.77;;
9409;SDS011;4744;52.576;13.568;2022-08-24T07:39:31;31.08;;;15.38;;
9409;SDS011;4744;52.576;13.568;2022-08-24T07:42:00;24.27;;;13.55;;
9409;SDS011;4744;52.576;13.568;2022-08-24T07:44:26;28.25;;;15.43;;
9409;SDS011;4744;52.576;13.568;2022-08-24T07:46:55;26.25;;;14.38;;
9409;SDS011;4744;52.576;13.568;2022-08-24T07:49:22;27.33;;;15.60;;
9409;SDS011;4744;52.576;13.568;2022-08-24T07:51:48;23.65;;;14.48;;
9409;SDS011;4744;52.576;13.568;2022-08-24T07:54:18;24.20;;;14.38;;
9409;SDS011;4744;52.576;13.568;2022-08-24T07:56:45;20.63;;;13.30;;
9409;SDS011;4744;52.576;13.568;2022-08-24T07:59:14;17.88;;;11.80;;
9409;SDS011;4744;52.576;13.568;2022-08-24T08:01:41;21.40;;;14.27;;
9409;SDS011;4744;52.576;13.568;2022-08-24T08:04:08;21.65;;;15.45;;
9409;SDS011;4744;52.576;13.568;2022-08-24T08:06:35;20.27;;;15.23;;
9409;SDS011;4744;52.576;13.568;2022-08-24T08:09:02;20.02;;;16.33;;
9409;SDS011;4744;52.576;13.568;2022-08-24T08:11:30;16.25;;;13.48;;
9409;SDS011;4744;52.576;13.568;2022-08-24T08:13:57;19.20;;;15.45;;
9409;SDS011;4744;52.576;13.568;2022-08-24T08:16:25;16.52;;;13.82;;
9409;SDS011;4744;52.576;13.568;2022-08-24T08:18:52;20.50;;;15.45;;
9409;SDS011;4744;52.576;13.568;2022-08-24T08:21:19;19.60;;;15.32;;
9409;SDS011;4744;52.576;13.568;2022-08-24T08:24:03;22.20;;;17.05;;
9409;SDS011;4744;52.576;13.568;2022-08-24T08:26:43;21.42;;;16.35;;
9409;SDS011;4744;52.576;13.568;2022-08-24T08:29:11;20.08;;;16.90;;
9409;SDS011;4744;52.576;13.568;2022-08-24T08:31:40;19.27;;;15.68;;
9409;SDS011;4744;52.576;13.568;2022-08-24T08:34:07;21.10;;;15.10;;
9409;SDS011;4744;52.576;13.568;2022-08-24T08:36:35;18.20;;;14.82;;
9409;SDS011;4744;52.576;13.568;2022-08-24T08:39:04;21.73;;;15.75;;
9409;SDS011;4744;52.576;13.568;2022-08-24T08:44:28;18.60;;;14.32;;
9409;SDS011;4744;52.576;13.568;2022-08-24T08:47:09;17.23;;;13.10;;
9409;SDS011;4744;52.576;13.568;2022-08-24T08:49:54;18.80;;;14.95;;
9409;SDS011;4744;52.576;13.568;2022-08-24T08:55:26;15.60;;;13.05;;
9409;SDS011;4744;52.576;13.568;2022-08-24T08:58:03;13.48;;;12.07;;
9409;SDS011;4744;52.576;13.568;2022-08-24T09:03:34;17.25;;;15.10;;
9409;SDS011;4744;52.576;13.568;2022-08-24T09:06:15;18.55;;;14.70;;
9409;SDS011;4744;52.576;13.568;2022-08-24T09:11:58;16.08;;;13.50;;
9409;SDS011;4744;52.576;13.568;2022-08-24T09:14:38;20.45;;;14.73;;
9409;SDS011;4744;52.576;13.568;2022-08-24T09:17:22;16.90;;;13.45;;
9409;SDS011;4744;52.576;13.568;2022-08-24T09:20:08;14.32;;;12.75;;
9409;SDS011;4744;52.576;13.568;2022-08-24T09:22:44;17.48;;;13.70;;
9409;SDS011;4744;52.576;13.568;2022-08-24T09:25:19;12.57;;;11.40;;
9409;SDS011;4744;52.576;13.568;2022-08-24T09:27:54;14.35;;;12.23;;
9409;SDS011;4744;52.576;13.568;2022-08-24T09:30:31;13.15;;;11.80;;
9409;SDS011;4744;52.576;13.568;2022-08-24T09:33:11;13.60;;;12.30;;
9409;SDS011;4744;52.576;13.568;2022-08-24T09:35:55;11.98;;;10.77;;
9409;SDS011;4744;52.576;13.568;2022-08-24T09:38:36;12.27;;;11.07;;
9409;SDS011;4744;52.576;13.568;2022-08-24T09:41:39;11.48;;;10.23;;
9409;SDS011;4744;52.576;13.568;2022-08-24T09:47:33;10.70;;;9.60;;
9409;SDS011;4744;52.576;13.568;2022-08-24T09:53:21;10.85;;;9.88;;
9409;SDS011;4744;52.576;13.568;2022-08-24T09:59:04;13.90;;;12.60;;
9409;SDS011;4744;52.576;13.568;2022-08-24T10:01:46;13.05;;;11.75;;
9409;SDS011;4744;52.576;13.568;2022-08-24T10:04:27;12.80;;;11.50;;
9409;SDS011;4744;52.576;13.568;2022-08-24T10:07:02;14.10;;;11.45;;
9409;SDS011;4744;52.576;13.568;2022-08-24T10:09:46;11.55;;;10.40;;
9409;SDS011;4744;52.576;13.568;2022-08-24T10:12:27;12.40;;;11.15;;
9409;SDS011;4744;52.576;13.568;2022-08-24T10:15:05;13.40;;;11.35;;
9409;SDS011;4744;52.576;13.568;2022-08-24T10:17:38;12.13;;;10.88;;
9409;SDS011;4744;52.576;13.568;2022-08-24T10:20:20;11.88;;;10.77;;
9409;SDS011;4744;52.576;13.568;2022-08-24T10:22:57;11.00;;;9.68;;
9409;SDS011;4744;52.576;13.568;2022-08-24T10:25:38;10.98;;;9.05;;
9409;SDS011;4744;52.576;13.568;2022-08-24T10:31:02;9.82;;;8.77;;
9409;SDS011;4744;52.576;13.568;2022-08-24T10:33:31;11.68;;;8.68;;
9409;SDS011;4744;52.576;13.568;2022-08-24T10:36:16;10.30;;;7.97;;
9409;SDS011;4744;52.576;13.568;2022-08-24T10:39:13;9.70;;;8.68;;
9409;SDS011;4744;52.576;13.568;2022-08-24T10:42:15;8.20;;;7.40;;
9409;SDS011;4744;52.576;13.568;2022-08-24T10:45:19;9.32;;;7.80;;
9409;SDS011;4744;52.576;13.568;2022-08-24T10:48:07;9.55;;;7.18;;
9409;SDS011;4744;52.576;13.568;2022-08-24T10:50:54;7.38;;;6.68;;
9409;SDS011;4744;52.576;13.568;2022-08-24T10:53:25;7.93;;;7.13;;
9409;SDS011;4744;52.576;13.568;2022-08-24T10:55:59;8.98;;;7.70;;
9409;SDS011;4744;52.576;13.568;2022-08-24T10:58:41;8.60;;;7.80;;
9409;SDS011;4744;52.576;13.568;2022-08-24T11:01:18;8.15;;;7.20;;
9409;SDS011;4744;52.576;13.568;2022-08-24T11:03:50;8.15;;;7.45;;
9409;SDS011;4744;52.576;13.568;2022-08-24T11:06:29;11.48;;;7.93;;
9409;SDS011;4744;52.576;13.568;2022-08-24T11:08:59;8.32;;;6.85;;
9409;SDS011;4744;52.576;13.568;2022-08-24T11:11:30;9.48;;;6.85;;
9409;SDS011;4744;52.576;13.568;2022-08-24T11:14:01;7.60;;;6.85;;
9409;SDS011;4744;52.576;13.568;2022-08-24T11:16:31;6.47;;;5.93;;
9409;SDS011;4744;52.576;13.568;2022-08-24T11:19:02;7.40;;;6.70;;
9409;SDS011;4744;52.576;13.568;2022-08-24T11:21:37;7.07;;;6.47;;
9409;SDS011;4744;52.576;13.568;2022-08-24T11:24:26;7.45;;;6.15;;
9409;SDS011;4744;52.576;13.568;2022-08-24T11:26:57;6.82;;;6.22;;
9409;SDS011;4744;52.576;13.568;2022-08-24T11:32:24;8.45;;;7.55;;
9409;SDS011;4744;52.576;13.568;2022-08-24T11:34:53;18.10;;;9.15;;
9409;SDS011;4744;52.576;13.568;2022-08-24T11:37:21;11.98;;;9.57;;
9409;SDS011;4744;52.576;13.568;2022-08-24T11:39:49;9.18;;;8.23;;
9409;SDS011;4744;52.576;13.568;2022-08-24T11:42:17;8.55;;;7.45;;
9409;SDS011;4744;52.576;13.568;2022-08-24T11:44:57;8.35;;;7.43;;
9409;SDS011;4744;52.576;13.568;2022-08-24T11:47:35;9.27;;;6.82;;
9409;SDS011;4744;52.576;13.568;2022-08-24T11:50:24;9.10;;;6.82;;
9409;SDS011;4744;52.576;13.568;2022-08-24T11:52:59;9.63;;;5.95;;
9409;SDS011;4744;52.576;13.568;2022-08-24T11:55:35;8.23;;;6.30;;
9409;SDS011;4744;52.576;13.568;2022-08-24T11:58:08;9.45;;;6.90;;
9409;SDS011;4744;52.576;13.568;2022-08-24T12:00:44;7.45;;;6.28;;
9409;SDS011;4744;52.576;13.568;2022-08-24T12:03:22;7.68;;;6.97;;
9409;SDS011;4744;52.576;13.568;2022-08-24T12:06:00;7.53;;;6.80;;
9409;SDS011;4744;52.576;13.568;2022-08-24T12:08:37;7.30;;;6.60;;
9409;SDS011;4744;52.576;13.568;2022-08-24T12:11:09;8.15;;;6.55;;
9409;SDS011;4744;52.576;13.568;2022-08-24T12:13:44;6.43;;;5.82;;
9409;SDS011;4744;52.576;13.568;2022-08-24T12:16:18;7.53;;;6.38;;
9409;SDS011;4744;52.576;13.568;2022-08-24T12:18:52;9.45;;;6.45;;
9409;SDS011;4744;52.576;13.568;2022-08-24T12:21:24;6.80;;;6.20;;
9409;SDS011;4744;52.576;13.568;2022-08-24T12:23:53;11.70;;;6.22;;
9409;SDS011;4744;52.576;13.568;2022-08-24T12:26:25;7.60;;;6.38;;
9409;SDS011;4744;52.576;13.568;2022-08-24T12:28:55;6.85;;;5.72;;
9409;SDS011;4744;52.576;13.568;2022-08-24T12:31:31;7.80;;;5.82;;
9409;SDS011;4744;52.576;13.568;2022-08-24T12:34:04;7.97;;;5.93;;
9409;SDS011;4744;52.576;13.568;2022-08-24T12:36:38;7.13;;;6.43;;
9409;SDS011;4744;52.576;13.568;2022-08-24T12:39:13;8.30;;;7.40;;
9409;SDS011;4744;52.576;13.568;2022-08-24T12:41:47;7.82;;;7.00;;
9409;SDS011;4744;52.576;13.568;2022-08-24T12:44:19;8.82;;;6.80;;
9409;SDS011;4744;52.576;13.568;2022-08-24T12:46:53;6.80;;;6.15;;
9409;SDS011;4744;52.576;13.568;2022-08-24T12:49:21;8.80;;;5.97;;
9409;SDS011;4744;52.576;13.568;2022-08-24T12:52:02;6.22;;;5.72;;
9409;SDS011;4744;52.576;13.568;2022-08-24T12:54:54;7.80;;;5.57;;
9409;SDS011;4744;52.576;13.568;2022-08-24T12:57:39;5.80;;;5.30;;
9409;SDS011;4744;52.576;13.568;2022-08-24T13:00:14;6.15;;;5.65;;
9409;SDS011;4744;52.576;13.568;2022-08-24T13:02:53;10.15;;;6.28;;
9409;SDS011;4744;52.576;13.568;2022-08-24T13:05:22;9.82;;;8.63;;
9409;SDS011;4744;52.576;13.568;2022-08-24T13:07:50;9.98;;;8.95;;
9409;SDS011;4744;52.576;13.568;2022-08-24T13:10:37;9.95;;;9.00;;
9409;SDS011;4744;52.576;13.568;2022-08-24T13:13:10;10.23;;;9.20;;
9409;SDS011;4744;52.576;13.568;2022-08-24T13:15:51;8.90;;;8.10;;
9409;SDS011;4744;52.576;13.568;2022-08-24T13:21:36;7.93;;;7.28;;
9409;SDS011;4744;52.576;13.568;2022-08-24T13:30:19;8.45;;;7.65;;
9409;SDS011;4744;52.576;13.568;2022-08-24T13:32:54;8.57;;;7.88;;
9409;SDS011;4744;52.576;13.568;2022-08-24T13:38:36;7.30;;;6.65;;
9409;SDS011;4744;52.576;13.568;2022-08-24T13:41:24;9.43;;;6.25;;
9409;SDS011;4744;52.576;13.568;2022-08-24T13:44:08;7.47;;;5.72;;
9409;SDS011;4744;52.576;13.568;2022-08-24T13:46:44;6.15;;;5.65;;
9409;SDS011;4744;52.576;13.568;2022-08-24T13:49:20;6.35;;;5.75;;
9409;SDS011;4744;52.576;13.568;2022-08-24T13:52:03;7.85;;;5.40;;
9409;SDS011;4744;52.576;13.568;2022-08-24T13:54:41;8.18;;;5.30;;
9409;SDS011;4744;52.576;13.568;2022-08-24T13:57:25;9.52;;;6.03;;
9409;SDS011;4744;52.576;13.568;2022-08-24T14:03:07;6.35;;;5.53;;
9409;SDS011;4744;52.576;13.568;2022-08-24T14:05:46;6.82;;;6.07;;
9409;SDS011;4744;52.576;13.568;2022-08-24T14:08:26;7.47;;;5.78;;
9409;SDS011;4744;52.576;13.568;2022-08-24T14:11:04;6.00;;;5.00;;
9409;SDS011;4744;52.576;13.568;2022-08-24T14:13:40;5.95;;;5.00;;
9409;SDS011;4744;52.576;13.568;2022-08-24T14:16:21;6.93;;;5.72;;
9409;SDS011;4744;52.576;13.568;2022-08-24T14:19:15;7.40;;;5.82;;
9409;SDS011;4744;52.576;13.568;2022-08-24T14:21:48;5.93;;;5.03;;
9409;SDS011;4744;52.576;13.568;2022-08-24T14:24:24;7.63;;;5.50;;
9409;SDS011;4744;52.576;13.568;2022-08-24T14:27:02;5.35;;;4.72;;
9409;SDS011;4744;52.576;13.568;2022-08-24T14:29:36;6.32;;;4.80;;
9409;SDS011;4744;52.576;13.568;2022-08-24T14:34:52;6.35;;;4.85;;
9409;SDS011;4744;52.576;13.568;2022-08-24T14:37:31;7.75;;;4.57;;
9409;SDS011;4744;52.576;13.568;2022-08-24T14:40:09;6.32;;;4.53;;
9409;SDS011;4744;52.576;13.568;2022-08-24T14:42:43;6.07;;;4.15;;
9409;SDS011;4744;52.576;13.568;2022-08-24T14:45:19;8.30;;;4.00;;
9409;SDS011;4744;52.576;13.568;2022-08-24T14:47:56;6.60;;;4.18;;
9409;SDS011;4744;52.576;13.568;2022-08-24T14:50:31;9.38;;;4.15;;
9409;SDS011;4744;52.576;13.568;2022-08-24T14:53:06;4.05;;;3.70;;
9409;SDS011;4744;52.576;13.568;2022-08-24T14:55:51;5.75;;;4.53;;
9409;SDS011;4744;52.576;13.568;2022-08-24T14:58:38;4.90;;;4.00;;
9409;SDS011;4744;52.576;13.568;2022-08-24T15:01:23;6.50;;;4.05;;
9409;SDS011;4744;52.576;13.568;2022-08-24T15:04:24;4.53;;;3.60;;
9409;SDS011;4744;52.576;13.568;2022-08-24T15:07:05;5.72;;;3.92;;
9409;SDS011;4744;52.576;13.568;2022-08-24T15:09:52;5.78;;;4.05;;
9409;SDS011;4744;52.576;13.568;2022-08-24T15:12:31;6.20;;;4.30;;
9409;SDS011;4744;52.576;13.568;2022-08-24T15:15:03;4.43;;;3.65;;
9409;SDS011;4744;52.576;13.568;2022-08-24T15:17:39;4.97;;;3.38;;
9409;SDS011;4744;52.576;13.568;2022-08-24T15:20:17;4.28;;;3.88;;
9409;SDS011;4744;52.576;13.568;2022-08-24T15:22:48;7.82;;;3.75;;
9409;SDS011;4744;52.576;13.568;2022-08-24T15:25:25;6.07;;;3.80;;
9409;SDS011;4744;52.576;13.568;2022-08-24T15:28:07;4.65;;;3.80;;
9409;SDS011;4744;52.576;13.568;2022-08-24T15:30:38;5.35;;;3.83;;
9409;SDS011;4744;52.576;13.568;2022-08-24T15:33:08;3.88;;;3.33;;
9409;SDS011;4744;52.576;13.568;2022-08-24T15:35:37;4.95;;;3.47;;
9409;SDS011;4744;52.576;13.568;2022-08-24T15:38:15;6.50;;;3.88;;
9409;SDS011;4744;52.576;13.568;2022-08-24T15:40:44;4.15;;;3.75;;
9409;SDS011;4744;52.576;13.568;2022-08-24T15:43:13;4.07;;;3.67;;
9409;SDS011;4744;52.576;13.568;2022-08-24T15:45:42;4.28;;;3.88;;
9409;SDS011;4744;52.576;13.568;2022-08-24T15:48:12;4.07;;;3.65;;
9409;SDS011;4744;52.576;13.568;2022-08-24T15:50:42;4.55;;;3.80;;
9409;SDS011;4744;52.576;13.568;2022-08-24T15:53:24;3.88;;;3.55;;
9409;SDS011;4744;52.576;13.568;2022-08-24T15:55:58;4.18;;;3.70;;
9409;SDS011;4744;52.576;13.568;2022-08-24T15:58:48;4.00;;;3.65;;
9409;SDS011;4744;52.576;13.568;2022-08-24T16:01:20;4.78;;;3.80;;
9409;SDS011;4744;52.576;13.568;2022-08-24T16:04:07;3.80;;;3.50;;
9409;SDS011;4744;52.576;13.568;2022-08-24T16:06:37;4.80;;;3.75;;
9409;SDS011;4744;52.576;13.568;2022-08-24T16:09:09;5.22;;;3.83;;